sensor_id;sensor_type;location;lat;lon;timestamp;P1;durP1;ratioP1;P2;durP2;ratioP2
5754;SDS011;2902;42.130;24.732;2024-01-06T00:01:10;24.90;;;16.03;;
5754;SDS011;2902;42.130;24.732;2024-01-06T00:03:38;26.93;;;16.00;;
5754;SDS011;2902;42.130;24.732;2024-01-06T00:06:05;24.73;;;15.37;;
5754;SDS011;2902;42.130;24.732;2024-01-06T00:08:32;31.50;;;16.47;;
5754;SDS011;2902;42.130;24.732;2024-01-06T00:10:58;25.97;;;17.60;;
5754;SDS011;2902;42.130;24.732;2024-01-06T00:13:27;26.40;;;17.63;;
5754;SDS011;2902;42.130;24.732;2024-01-06T00:15:56;27.80;;;18.67;;
5754;SDS011;2902;42.130;24.732;2024-01-06T00:18:22;33.40;;;20.83;;
5754;SDS011;2902;42.130;24.732;2024-01-06T00:20:49;41.77;;;20.90;;
5754;SDS011;2902;42.130;24.732;2024-01-06T00:23:16;40.60;;;23.87;;
5754;SDS011;2902;42.130;24.732;2024-01-06T00:25:42;45.60;;;28.63;;
5754;SDS011;2902;42.130;24.732;2024-01-06T00:28:09;40.47;;;26.13;;
5754;SDS011;2902;42.130;24.732;2024-01-06T00:30:36;39.23;;;24.50;;
5754;SDS011;2902;42.130;24.732;2024-01-06T00:33:04;47.57;;;29.83;;
5754;SDS011;2902;42.130;24.732;2024-01-06T00:35:31;47.77;;;28.07;;
5754;SDS011;2902;42.130;24.732;2024-01-06T00:37:58;37.80;;;24.03;;
5754;SDS011;2902;42.130;24.732;2024-01-06T00:40:25;39.07;;;24.53;;
5754;SDS011;2902;42.130;24.732;2024-01-06T00:42:52;39.37;;;25.13;;
5754;SDS011;2902;42.130;24.732;2024-01-06T00:45:18;42.13;;;26.13;;
5754;SDS011;2902;42.130;24.732;2024-01-06T00:47:45;36.70;;;23.47;;
5754;SDS011;2902;42.130;24.732;2024-01-06T00:50:14;42.03;;;26.73;;
5754;SDS011;2902;42.130;24.732;2024-01-06T00:52:42;47.20;;;25.33;;
5754;SDS011;2902;42.130;24.732;2024-01-06T00:55:08;56.47;;;27.83;;
5754;SDS011;2902;42.130;24.732;2024-01-06T00:57:35;44.53;;;27.23;;
5754;SDS011;2902;42.130;24.732;2024-01-06T01:00:02;45.43;;;27.57;;
5754;SDS011;2902;42.130;24.732;2024-01-06T01:02:30;45.57;;;26.77;;
5754;SDS011;2902;42.130;24.732;2024-01-06T01:04:57;47.60;;;26.83;;
5754;SDS011;2902;42.130;24.732;2024-01-06T01:07:25;41.70;;;26.20;;
5754;SDS011;2902;42.130;24.732;2024-01-06T01:09:52;49.20;;;29.07;;
5754;SDS011;2902;42.130;24.732;2024-01-06T01:12:19;43.90;;;26.50;;
5754;SDS011;2902;42.130;24.732;2024-01-06T01:14:45;46.93;;;26.60;;
5754;SDS011;2902;42.130;24.732;2024-01-06T01:17:12;47.50;;;26.37;;
5754;SDS011;2902;42.130;24.732;2024-01-06T01:19:39;50.17;;;27.73;;
5754;SDS011;2902;42.130;24.732;2024-01-06T01:22:06;42.13;;;26.57;;
5754;SDS011;2902;42.130;24.732;2024-01-06T01:24:34;43.50;;;26.33;;
5754;SDS011;2902;42.130;24.732;2024-01-06T01:27:00;38.93;;;26.73;;
5754;SDS011;2902;42.130;24.732;2024-01-06T01:29:27;43.53;;;26.93;;
5754;SDS011;2902;42.130;24.732;2024-01-06T01:31:53;44.73;;;26.47;;
5754;SDS011;2902;42.130;24.732;2024-01-06T01:34:19;46.13;;;27.50;;
5754;SDS011;2902;42.130;24.732;2024-01-06T01:36:46;38.47;;;25.70;;
5754;SDS011;2902;42.130;24.732;2024-01-06T01:39:13;46.77;;;28.53;;
5754;SDS011;2902;42.130;24.732;2024-01-06T01:41:41;40.77;;;26.70;;
5754;SDS011;2902;42.130;24.732;2024-01-06T01:44:08;42.63;;;26.00;;
5754;SDS011;2902;42.130;24.732;2024-01-06T01:46:34;43.07;;;27.67;;
5754;SDS011;2902;42.130;24.732;2024-01-06T01:49:03;47.60;;;27.50;;
5754;SDS011;2902;42.130;24.732;2024-01-06T01:51:31;46.50;;;28.13;;
5754;SDS011;2902;42.130;24.732;2024-01-06T01:54:00;43.23;;;27.73;;
5754;SDS011;2902;42.130;24.732;2024-01-06T01:56:28;45.07;;;26.87;;
5754;SDS011;2902;42.130;24.732;2024-01-06T01:59:00;50.00;;;28.23;;
5754;SDS011;2902;42.130;24.732;2024-01-06T02:01:31;40.00;;;26.80;;
5754;SDS011;2902;42.130;24.732;2024-01-06T02:03:58;43.60;;;25.20;;
5754;SDS011;2902;42.130;24.732;2024-01-06T02:06:25;41.27;;;24.70;;
5754;SDS011;2902;42.130;24.732;2024-01-06T02:08:52;45.30;;;26.13;;
5754;SDS011;2902;42.130;24.732;2024-01-06T02:11:19;37.30;;;23.27;;
5754;SDS011;2902;42.130;24.732;2024-01-06T02:13:46;36.17;;;23.20;;
5754;SDS011;2902;42.130;24.732;2024-01-06T02:16:14;36.37;;;23.20;;
5754;SDS011;2902;42.130;24.732;2024-01-06T02:18:41;34.13;;;22.67;;
5754;SDS011;2902;42.130;24.732;2024-01-06T02:21:07;35.93;;;22.43;;
5754;SDS011;2902;42.130;24.732;2024-01-06T02:23:37;34.87;;;21.50;;
5754;SDS011;2902;42.130;24.732;2024-01-06T02:26:03;34.67;;;21.53;;
5754;SDS011;2902;42.130;24.732;2024-01-06T02:28:30;33.70;;;19.40;;
5754;SDS011;2902;42.130;24.732;2024-01-06T02:30:57;28.93;;;19.33;;
5754;SDS011;2902;42.130;24.732;2024-01-06T02:33:23;31.80;;;20.50;;
5754;SDS011;2902;42.130;24.732;2024-01-06T02:35:50;31.10;;;20.77;;
5754;SDS011;2902;42.130;24.732;2024-01-06T02:38:17;28.27;;;18.97;;
5754;SDS011;2902;42.130;24.732;2024-01-06T02:40:45;30.57;;;19.33;;
5754;SDS011;2902;42.130;24.732;2024-01-06T02:43:12;31.50;;;20.17;;
5754;SDS011;2902;42.130;24.732;2024-01-06T02:45:38;29.63;;;18.27;;
5754;SDS011;2902;42.130;24.732;2024-01-06T02:48:05;30.97;;;19.37;;
5754;SDS011;2902;42.130;24.732;2024-01-06T02:50:32;24.90;;;18.27;;
5754;SDS011;2902;42.130;24.732;2024-01-06T02:52:59;25.20;;;18.20;;
5754;SDS011;2902;42.130;24.732;2024-01-06T02:55:26;26.63;;;17.80;;
5754;SDS011;2902;42.130;24.732;2024-01-06T02:57:54;30.13;;;19.23;;
5754;SDS011;2902;42.130;24.732;2024-01-06T03:00:20;31.30;;;20.17;;
5754;SDS011;2902;42.130;24.732;2024-01-06T03:02:47;31.97;;;19.63;;
5754;SDS011;2902;42.130;24.732;2024-01-06T03:05:14;32.10;;;19.73;;
5754;SDS011;2902;42.130;24.732;2024-01-06T03:07:42;33.57;;;20.13;;
5754;SDS011;2902;42.130;24.732;2024-01-06T03:10:09;32.23;;;19.67;;
5754;SDS011;2902;42.130;24.732;2024-01-06T03:12:36;29.57;;;20.07;;
5754;SDS011;2902;42.130;24.732;2024-01-06T03:15:05;35.33;;;20.40;;
5754;SDS011;2902;42.130;24.732;2024-01-06T03:17:32;26.93;;;18.70;;
5754;SDS011;2902;42.130;24.732;2024-01-06T03:19:58;29.13;;;18.83;;
5754;SDS011;2902;42.130;24.732;2024-01-06T03:22:25;31.80;;;20.70;;
5754;SDS011;2902;42.130;24.732;2024-01-06T03:24:52;33.03;;;19.63;;
5754;SDS011;2902;42.130;24.732;2024-01-06T03:27:18;33.60;;;19.53;;
5754;SDS011;2902;42.130;24.732;2024-01-06T03:29:45;31.53;;;20.67;;
5754;SDS011;2902;42.130;24.732;2024-01-06T03:32:14;32.00;;;20.60;;
5754;SDS011;2902;42.130;24.732;2024-01-06T03:34:40;30.00;;;19.60;;
5754;SDS011;2902;42.130;24.732;2024-01-06T03:37:08;28.40;;;19.80;;
5754;SDS011;2902;42.130;24.732;2024-01-06T03:39:34;32.93;;;20.53;;
5754;SDS011;2902;42.130;24.732;2024-01-06T03:42:01;28.97;;;19.93;;
5754;SDS011;2902;42.130;24.732;2024-01-06T03:44:28;31.27;;;19.50;;
5754;SDS011;2902;42.130;24.732;2024-01-06T03:46:55;34.27;;;19.60;;
5754;SDS011;2902;42.130;24.732;2024-01-06T03:49:24;29.30;;;18.63;;
5754;SDS011;2902;42.130;24.732;2024-01-06T03:51:52;30.97;;;20.57;;
5754;SDS011;2902;42.130;24.732;2024-01-06T03:54:18;30.63;;;19.63;;
5754;SDS011;2902;42.130;24.732;2024-01-06T03:56:45;31.47;;;19.67;;
5754;SDS011;2902;42.130;24.732;2024-01-06T03:59:12;23.77;;;18.17;;
5754;SDS011;2902;42.130;24.732;2024-01-06T04:01:38;33.73;;;20.33;;
5754;SDS011;2902;42.130;24.732;2024-01-06T04:04:05;27.77;;;19.07;;
5754;SDS011;2902;42.130;24.732;2024-01-06T04:06:35;28.17;;;18.83;;
5754;SDS011;2902;42.130;24.732;2024-01-06T04:09:01;29.87;;;18.20;;
5754;SDS011;2902;42.130;24.732;2024-01-06T04:11:28;28.20;;;17.93;;
5754;SDS011;2902;42.130;24.732;2024-01-06T04:13:55;29.77;;;19.20;;
5754;SDS011;2902;42.130;24.732;2024-01-06T04:16:22;27.97;;;17.73;;
5754;SDS011;2902;42.130;24.732;2024-01-06T04:18:48;27.40;;;18.03;;
5754;SDS011;2902;42.130;24.732;2024-01-06T04:21:15;30.37;;;17.90;;
5754;SDS011;2902;42.130;24.732;2024-01-06T04:23:43;24.80;;;17.27;;
5754;SDS011;2902;42.130;24.732;2024-01-06T04:26:10;29.07;;;17.63;;
5754;SDS011;2902;42.130;24.732;2024-01-06T04:28:36;24.20;;;17.60;;
5754;SDS011;2902;42.130;24.732;2024-01-06T04:31:03;26.63;;;17.73;;
5754;SDS011;2902;42.130;24.732;2024-01-06T04:33:30;25.50;;;18.57;;
5754;SDS011;2902;42.130;24.732;2024-01-06T04:35:58;29.17;;;19.10;;
5754;SDS011;2902;42.130;24.732;2024-01-06T04:38:26;28.80;;;18.73;;
5754;SDS011;2902;42.130;24.732;2024-01-06T04:40:55;25.67;;;19.23;;
5754;SDS011;2902;42.130;24.732;2024-01-06T04:43:21;27.73;;;17.90;;
5754;SDS011;2902;42.130;24.732;2024-01-06T04:45:49;27.07;;;18.57;;
5754;SDS011;2902;42.130;24.732;2024-01-06T04:48:16;27.10;;;18.73;;
5754;SDS011;2902;42.130;24.732;2024-01-06T04:50:43;32.57;;;20.13;;
5754;SDS011;2902;42.130;24.732;2024-01-06T04:53:09;28.97;;;20.00;;
5754;SDS011;2902;42.130;24.732;2024-01-06T04:55:36;32.23;;;20.43;;
5754;SDS011;2902;42.130;24.732;2024-01-06T04:58:04;25.20;;;17.77;;
5754;SDS011;2902;42.130;24.732;2024-01-06T05:00:31;27.60;;;17.37;;
5754;SDS011;2902;42.130;24.732;2024-01-06T05:03:01;22.97;;;16.20;;
5754;SDS011;2902;42.130;24.732;2024-01-06T05:05:27;24.57;;;16.23;;
5754;SDS011;2902;42.130;24.732;2024-01-06T05:07:54;28.63;;;17.70;;
5754;SDS011;2902;42.130;24.732;2024-01-06T05:10:21;27.80;;;17.63;;
5754;SDS011;2902;42.130;24.732;2024-01-06T05:12:48;24.53;;;16.83;;
5754;SDS011;2902;42.130;24.732;2024-01-06T05:15:16;32.30;;;19.97;;
5754;SDS011;2902;42.130;24.732;2024-01-06T05:17:42;36.67;;;19.40;;
5754;SDS011;2902;42.130;24.732;2024-01-06T05:20:09;26.93;;;19.27;;
5754;SDS011;2902;42.130;24.732;2024-01-06T05:22:36;31.10;;;21.27;;
5754;SDS011;2902;42.130;24.732;2024-01-06T05:25:03;35.00;;;22.63;;
5754;SDS011;2902;42.130;24.732;2024-01-06T05:27:30;30.70;;;20.77;;
5754;SDS011;2902;42.130;24.732;2024-01-06T05:29:57;31.50;;;20.33;;
5754;SDS011;2902;42.130;24.732;2024-01-06T05:32:25;27.97;;;19.50;;
5754;SDS011;2902;42.130;24.732;2024-01-06T05:34:52;27.93;;;18.80;;
5754;SDS011;2902;42.130;24.732;2024-01-06T05:37:18;30.30;;;18.37;;
5754;SDS011;2902;42.130;24.732;2024-01-06T05:39:45;32.13;;;18.73;;
5754;SDS011;2902;42.130;24.732;2024-01-06T05:42:12;31.80;;;19.13;;
5754;SDS011;2902;42.130;24.732;2024-01-06T05:44:39;33.77;;;19.93;;
5754;SDS011;2902;42.130;24.732;2024-01-06T05:47:06;33.33;;;20.30;;
5754;SDS011;2902;42.130;24.732;2024-01-06T05:49:35;27.97;;;19.77;;
5754;SDS011;2902;42.130;24.732;2024-01-06T05:52:02;31.57;;;19.63;;
5754;SDS011;2902;42.130;24.732;2024-01-06T05:54:29;30.13;;;19.93;;
5754;SDS011;2902;42.130;24.732;2024-01-06T05:56:56;27.87;;;20.07;;
5754;SDS011;2902;42.130;24.732;2024-01-06T05:59:23;30.63;;;20.20;;
5754;SDS011;2902;42.130;24.732;2024-01-06T06:01:49;30.47;;;20.77;;
5754;SDS011;2902;42.130;24.732;2024-01-06T06:04:17;35.87;;;21.17;;
5754;SDS011;2902;42.130;24.732;2024-01-06T06:06:46;26.03;;;19.07;;
5754;SDS011;2902;42.130;24.732;2024-01-06T06:09:13;25.23;;;18.50;;
5754;SDS011;2902;42.130;24.732;2024-01-06T06:11:40;25.03;;;18.97;;
5754;SDS011;2902;42.130;24.732;2024-01-06T06:14:08;27.57;;;17.87;;
5754;SDS011;2902;42.130;24.732;2024-01-06T06:16:34;27.53;;;19.20;;
5754;SDS011;2902;42.130;24.732;2024-01-06T06:19:02;29.87;;;19.27;;
5754;SDS011;2902;42.130;24.732;2024-01-06T06:21:29;28.97;;;18.40;;
5754;SDS011;2902;42.130;24.732;2024-01-06T06:23:57;27.43;;;19.50;;
5754;SDS011;2902;42.130;24.732;2024-01-06T06:26:24;25.57;;;18.93;;
5754;SDS011;2902;42.130;24.732;2024-01-06T06:28:51;26.17;;;18.23;;
5754;SDS011;2902;42.130;24.732;2024-01-06T06:31:17;21.43;;;17.03;;
5754;SDS011;2902;42.130;24.732;2024-01-06T06:33:44;24.50;;;15.90;;
5754;SDS011;2902;42.130;24.732;2024-01-06T06:36:11;24.97;;;17.77;;
5754;SDS011;2902;42.130;24.732;2024-01-06T06:38:37;53.80;;;40.83;;
5754;SDS011;2902;42.130;24.732;2024-01-06T06:41:06;40.30;;;29.73;;
5754;SDS011;2902;42.130;24.732;2024-01-06T06:43:32;28.93;;;20.37;;
5754;SDS011;2902;42.130;24.732;2024-01-06T06:45:59;23.17;;;17.10;;
5754;SDS011;2902;42.130;24.732;2024-01-06T06:48:26;26.47;;;16.97;;
5754;SDS011;2902;42.130;24.732;2024-01-06T06:50:52;29.33;;;17.17;;
5754;SDS011;2902;42.130;24.732;2024-01-06T06:53:20;31.77;;;16.90;;
5754;SDS011;2902;42.130;24.732;2024-01-06T06:55:46;27.43;;;17.60;;
5754;SDS011;2902;42.130;24.732;2024-01-06T06:58:15;23.53;;;16.73;;
5754;SDS011;2902;42.130;24.732;2024-01-06T07:00:42;37.47;;;20.27;;
5754;SDS011;2902;42.130;24.732;2024-01-06T07:03:09;29.43;;;19.43;;
5754;SDS011;2902;42.130;24.732;2024-01-06T07:05:35;30.47;;;19.17;;
5754;SDS011;2902;42.130;24.732;2024-01-06T07:08:04;25.13;;;17.67;;
5754;SDS011;2902;42.130;24.732;2024-01-06T07:10:31;24.17;;;15.93;;
5754;SDS011;2902;42.130;24.732;2024-01-06T07:12:58;32.57;;;19.97;;
5754;SDS011;2902;42.130;24.732;2024-01-06T07:15:26;32.73;;;19.17;;
5754;SDS011;2902;42.130;24.732;2024-01-06T07:17:52;24.70;;;16.87;;
5754;SDS011;2902;42.130;24.732;2024-01-06T07:20:19;26.10;;;17.37;;
5754;SDS011;2902;42.130;24.732;2024-01-06T07:22:46;33.97;;;21.40;;
5754;SDS011;2902;42.130;24.732;2024-01-06T07:25:13;33.53;;;22.93;;
5754;SDS011;2902;42.130;24.732;2024-01-06T07:27:39;42.80;;;25.53;;
5754;SDS011;2902;42.130;24.732;2024-01-06T07:30:06;41.13;;;21.97;;
5754;SDS011;2902;42.130;24.732;2024-01-06T07:32:35;42.03;;;26.90;;
5754;SDS011;2902;42.130;24.732;2024-01-06T07:35:02;35.47;;;23.10;;
5754;SDS011;2902;42.130;24.732;2024-01-06T07:37:29;37.83;;;22.77;;
5754;SDS011;2902;42.130;24.732;2024-01-06T07:39:56;34.63;;;22.50;;
5754;SDS011;2902;42.130;24.732;2024-01-06T07:42:23;43.90;;;27.30;;
5754;SDS011;2902;42.130;24.732;2024-01-06T07:44:49;39.57;;;25.60;;
5754;SDS011;2902;42.130;24.732;2024-01-06T07:47:16;39.77;;;26.47;;
5754;SDS011;2902;42.130;24.732;2024-01-06T07:49:44;47.57;;;27.13;;
5754;SDS011;2902;42.130;24.732;2024-01-06T07:52:12;51.57;;;29.73;;
5754;SDS011;2902;42.130;24.732;2024-01-06T07:54:38;43.50;;;28.33;;
5754;SDS011;2902;42.130;24.732;2024-01-06T07:57:05;39.87;;;26.50;;
5754;SDS011;2902;42.130;24.732;2024-01-06T07:59:32;35.80;;;24.90;;
5754;SDS011;2902;42.130;24.732;2024-01-06T08:01:58;35.80;;;22.93;;
5754;SDS011;2902;42.130;24.732;2024-01-06T08:04:25;30.43;;;21.37;;
5754;SDS011;2902;42.130;24.732;2024-01-06T08:06:53;40.93;;;26.50;;
5754;SDS011;2902;42.130;24.732;2024-01-06T08:09:20;38.93;;;24.80;;
5754;SDS011;2902;42.130;24.732;2024-01-06T08:11:48;31.67;;;24.30;;
5754;SDS011;2902;42.130;24.732;2024-01-06T08:14:15;25.70;;;19.03;;
5754;SDS011;2902;42.130;24.732;2024-01-06T08:16:42;27.03;;;18.13;;
5754;SDS011;2902;42.130;24.732;2024-01-06T08:19:09;26.03;;;19.27;;
5754;SDS011;2902;42.130;24.732;2024-01-06T08:21:36;38.80;;;21.47;;
5754;SDS011;2902;42.130;24.732;2024-01-06T08:24:04;33.10;;;19.93;;
5754;SDS011;2902;42.130;24.732;2024-01-06T08:26:31;32.77;;;20.17;;
5754;SDS011;2902;42.130;24.732;2024-01-06T08:28:58;35.57;;;20.73;;
5754;SDS011;2902;42.130;24.732;2024-01-06T08:31:25;25.30;;;17.10;;
5754;SDS011;2902;42.130;24.732;2024-01-06T08:33:52;31.03;;;19.07;;
5754;SDS011;2902;42.130;24.732;2024-01-06T08:36:18;31.27;;;19.73;;
5754;SDS011;2902;42.130;24.732;2024-01-06T08:38:45;51.33;;;18.77;;
5754;SDS011;2902;42.130;24.732;2024-01-06T08:41:13;44.30;;;20.53;;
5754;SDS011;2902;42.130;24.732;2024-01-06T08:43:40;27.57;;;19.10;;
5754;SDS011;2902;42.130;24.732;2024-01-06T08:46:07;29.27;;;20.27;;
5754;SDS011;2902;42.130;24.732;2024-01-06T08:48:33;31.13;;;20.00;;
5754;SDS011;2902;42.130;24.732;2024-01-06T08:51:00;32.07;;;22.03;;
5754;SDS011;2902;42.130;24.732;2024-01-06T08:53:27;31.53;;;20.10;;
5754;SDS011;2902;42.130;24.732;2024-01-06T08:55:54;36.97;;;20.60;;
5754;SDS011;2902;42.130;24.732;2024-01-06T08:58:22;31.90;;;20.50;;
5754;SDS011;2902;42.130;24.732;2024-01-06T09:00:49;33.00;;;20.80;;
5754;SDS011;2902;42.130;24.732;2024-01-06T09:03:16;32.87;;;20.63;;
5754;SDS011;2902;42.130;24.732;2024-01-06T09:05:42;26.43;;;18.70;;
5754;SDS011;2902;42.130;24.732;2024-01-06T09:08:09;30.10;;;16.90;;
5754;SDS011;2902;42.130;24.732;2024-01-06T09:10:36;17.83;;;13.73;;
5754;SDS011;2902;42.130;24.732;2024-01-06T09:13:03;16.33;;;13.40;;
5754;SDS011;2902;42.130;24.732;2024-01-06T09:15:31;18.57;;;14.80;;
5754;SDS011;2902;42.130;24.732;2024-01-06T09:17:58;28.80;;;17.47;;
5754;SDS011;2902;42.130;24.732;2024-01-06T09:20:25;30.17;;;19.03;;
5754;SDS011;2902;42.130;24.732;2024-01-06T09:22:52;35.20;;;22.27;;
5754;SDS011;2902;42.130;24.732;2024-01-06T09:25:19;41.03;;;24.23;;
5754;SDS011;2902;42.130;24.732;2024-01-06T09:27:48;68.40;;;34.97;;
5754;SDS011;2902;42.130;24.732;2024-01-06T09:30:16;40.80;;;22.97;;
5754;SDS011;2902;42.130;24.732;2024-01-06T09:32:44;25.60;;;19.90;;
5754;SDS011;2902;42.130;24.732;2024-01-06T09:35:11;31.17;;;21.27;;
5754;SDS011;2902;42.130;24.732;2024-01-06T09:37:38;33.77;;;21.73;;
5754;SDS011;2902;42.130;24.732;2024-01-06T09:40:05;35.83;;;20.17;;
5754;SDS011;2902;42.130;24.732;2024-01-06T09:42:35;36.23;;;19.83;;
5754;SDS011;2902;42.130;24.732;2024-01-06T09:45:02;30.63;;;19.93;;
5754;SDS011;2902;42.130;24.732;2024-01-06T09:47:29;42.13;;;20.07;;
5754;SDS011;2902;42.130;24.732;2024-01-06T09:50:03;43.57;;;20.23;;
5754;SDS011;2902;42.130;24.732;2024-01-06T09:52:34;51.53;;;20.57;;
5754;SDS011;2902;42.130;24.732;2024-01-06T09:55:06;31.70;;;19.87;;
5754;SDS011;2902;42.130;24.732;2024-01-06T09:57:38;35.17;;;21.33;;
5754;SDS011;2902;42.130;24.732;2024-01-06T10:00:06;32.80;;;20.80;;
5754;SDS011;2902;42.130;24.732;2024-01-06T10:02:34;36.40;;;22.77;;
5754;SDS011;2902;42.130;24.732;2024-01-06T10:05:02;37.00;;;22.90;;
5754;SDS011;2902;42.130;24.732;2024-01-06T10:07:29;37.10;;;23.20;;
5754;SDS011;2902;42.130;24.732;2024-01-06T10:09:56;35.63;;;21.33;;
5754;SDS011;2902;42.130;24.732;2024-01-06T10:12:23;46.83;;;27.70;;
5754;SDS011;2902;42.130;24.732;2024-01-06T10:14:50;55.30;;;25.80;;
5754;SDS011;2902;42.130;24.732;2024-01-06T10:17:17;38.87;;;22.13;;
5754;SDS011;2902;42.130;24.732;2024-01-06T10:19:44;56.90;;;21.90;;
5754;SDS011;2902;42.130;24.732;2024-01-06T10:22:13;40.03;;;22.00;;
5754;SDS011;2902;42.130;24.732;2024-01-06T10:24:39;44.27;;;22.77;;
5754;SDS011;2902;42.130;24.732;2024-01-06T10:27:06;36.37;;;22.73;;
5754;SDS011;2902;42.130;24.732;2024-01-06T10:29:34;33.77;;;23.97;;
5754;SDS011;2902;42.130;24.732;2024-01-06T10:32:01;39.73;;;24.00;;
5754;SDS011;2902;42.130;24.732;2024-01-06T10:34:28;40.20;;;25.80;;
5754;SDS011;2902;42.130;24.732;2024-01-06T10:36:57;51.67;;;26.77;;
5754;SDS011;2902;42.130;24.732;2024-01-06T10:39:26;53.67;;;26.07;;
5754;SDS011;2902;42.130;24.732;2024-01-06T10:41:54;43.67;;;25.33;;
5754;SDS011;2902;42.130;24.732;2024-01-06T10:44:21;40.50;;;24.07;;
5754;SDS011;2902;42.130;24.732;2024-01-06T10:46:50;46.60;;;25.23;;
5754;SDS011;2902;42.130;24.732;2024-01-06T10:49:17;37.37;;;21.83;;
5754;SDS011;2902;42.130;24.732;2024-01-06T10:51:47;35.27;;;22.63;;
5754;SDS011;2902;42.130;24.732;2024-01-06T10:54:15;32.33;;;20.37;;
5754;SDS011;2902;42.130;24.732;2024-01-06T10:56:45;36.60;;;21.63;;
5754;SDS011;2902;42.130;24.732;2024-01-06T10:59:13;32.97;;;21.60;;
5754;SDS011;2902;42.130;24.732;2024-01-06T11:01:41;49.30;;;24.50;;
5754;SDS011;2902;42.130;24.732;2024-01-06T11:04:10;36.13;;;20.90;;
5754;SDS011;2902;42.130;24.732;2024-01-06T11:06:38;36.67;;;20.17;;
5754;SDS011;2902;42.130;24.732;2024-01-06T11:09:07;36.47;;;18.90;;
5754;SDS011;2902;42.130;24.732;2024-01-06T11:11:37;35.80;;;20.50;;
5754;SDS011;2902;42.130;24.732;2024-01-06T11:14:18;28.07;;;16.10;;
5754;SDS011;2902;42.130;24.732;2024-01-06T11:16:46;27.23;;;15.93;;
5754;SDS011;2902;42.130;24.732;2024-01-06T11:22:18;28.17;;;15.23;;
5754;SDS011;2902;42.130;24.732;2024-01-06T11:24:50;24.17;;;16.40;;
5754;SDS011;2902;42.130;24.732;2024-01-06T11:27:19;36.97;;;19.17;;
5754;SDS011;2902;42.130;24.732;2024-01-06T11:29:50;30.27;;;18.37;;
5754;SDS011;2902;42.130;24.732;2024-01-06T11:32:24;34.17;;;19.77;;
5754;SDS011;2902;42.130;24.732;2024-01-06T11:34:53;31.00;;;18.77;;
5754;SDS011;2902;42.130;24.732;2024-01-06T11:37:24;33.13;;;17.90;;
5754;SDS011;2902;42.130;24.732;2024-01-06T11:40:01;24.03;;;16.43;;
5754;SDS011;2902;42.130;24.732;2024-01-06T11:42:31;23.87;;;16.53;;
5754;SDS011;2902;42.130;24.732;2024-01-06T11:45:02;28.83;;;16.50;;
5754;SDS011;2902;42.130;24.732;2024-01-06T11:47:31;19.07;;;14.87;;
5754;SDS011;2902;42.130;24.732;2024-01-06T11:49:59;24.33;;;14.60;;
5754;SDS011;2902;42.130;24.732;2024-01-06T11:52:29;21.17;;;14.57;;
5754;SDS011;2902;42.130;24.732;2024-01-06T11:54:56;24.90;;;15.80;;
5754;SDS011;2902;42.130;24.732;2024-01-06T11:57:24;20.73;;;15.93;;
5754;SDS011;2902;42.130;24.732;2024-01-06T11:59:51;21.27;;;16.37;;
5754;SDS011;2902;42.130;24.732;2024-01-06T12:02:19;23.67;;;15.93;;
5754;SDS011;2902;42.130;24.732;2024-01-06T12:04:48;20.80;;;15.03;;
5754;SDS011;2902;42.130;24.732;2024-01-06T12:07:16;18.97;;;14.47;;
5754;SDS011;2902;42.130;24.732;2024-01-06T12:09:43;15.87;;;14.23;;
5754;SDS011;2902;42.130;24.732;2024-01-06T12:12:10;18.43;;;15.00;;
5754;SDS011;2902;42.130;24.732;2024-01-06T12:14:40;18.57;;;14.60;;
5754;SDS011;2902;42.130;24.732;2024-01-06T12:17:07;16.60;;;12.47;;
5754;SDS011;2902;42.130;24.732;2024-01-06T12:19:36;13.87;;;12.50;;
5754;SDS011;2902;42.130;24.732;2024-01-06T12:22:04;20.83;;;13.63;;
5754;SDS011;2902;42.130;24.732;2024-01-06T12:24:32;23.40;;;16.20;;
5754;SDS011;2902;42.130;24.732;2024-01-06T12:26:58;32.80;;;20.07;;
5754;SDS011;2902;42.130;24.732;2024-01-06T12:29:26;21.67;;;13.53;;
5754;SDS011;2902;42.130;24.732;2024-01-06T12:31:54;11.73;;;9.00;;
5754;SDS011;2902;42.130;24.732;2024-01-06T12:34:21;14.93;;;10.27;;
5754;SDS011;2902;42.130;24.732;2024-01-06T12:36:51;11.97;;;10.47;;
5754;SDS011;2902;42.130;24.732;2024-01-06T12:39:19;16.23;;;11.80;;
5754;SDS011;2902;42.130;24.732;2024-01-06T12:41:46;12.50;;;11.07;;
5754;SDS011;2902;42.130;24.732;2024-01-06T12:44:12;16.20;;;12.07;;
5754;SDS011;2902;42.130;24.732;2024-01-06T12:46:39;12.87;;;11.50;;
5754;SDS011;2902;42.130;24.732;2024-01-06T12:49:06;13.57;;;11.00;;
5754;SDS011;2902;42.130;24.732;2024-01-06T12:51:33;12.33;;;11.03;;
5754;SDS011;2902;42.130;24.732;2024-01-06T12:54:01;14.57;;;10.87;;
5754;SDS011;2902;42.130;24.732;2024-01-06T12:56:28;16.57;;;13.00;;
5754;SDS011;2902;42.130;24.732;2024-01-06T12:58:55;23.50;;;13.47;;
5754;SDS011;2902;42.130;24.732;2024-01-06T13:01:22;18.23;;;14.77;;
5754;SDS011;2902;42.130;24.732;2024-01-06T13:03:48;18.63;;;12.23;;
5754;SDS011;2902;42.130;24.732;2024-01-06T13:06:16;16.90;;;13.97;;
5754;SDS011;2902;42.130;24.732;2024-01-06T13:08:44;26.13;;;16.83;;
5754;SDS011;2902;42.130;24.732;2024-01-06T13:11:12;21.27;;;16.07;;
5754;SDS011;2902;42.130;24.732;2024-01-06T13:13:39;21.33;;;15.73;;
5754;SDS011;2902;42.130;24.732;2024-01-06T13:16:06;27.70;;;17.63;;
5754;SDS011;2902;42.130;24.732;2024-01-06T13:18:32;18.47;;;15.50;;
5754;SDS011;2902;42.130;24.732;2024-01-06T13:20:59;21.93;;;14.30;;
5754;SDS011;2902;42.130;24.732;2024-01-06T13:23:26;25.20;;;14.97;;
5754;SDS011;2902;42.130;24.732;2024-01-06T13:25:54;28.07;;;16.40;;
5754;SDS011;2902;42.130;24.732;2024-01-06T13:28:23;18.93;;;14.20;;
5754;SDS011;2902;42.130;24.732;2024-01-06T13:30:50;23.07;;;14.30;;
5754;SDS011;2902;42.130;24.732;2024-01-06T13:33:18;22.40;;;14.50;;
5754;SDS011;2902;42.130;24.732;2024-01-06T13:35:45;22.87;;;14.57;;
5754;SDS011;2902;42.130;24.732;2024-01-06T13:38:12;20.73;;;13.83;;
5754;SDS011;2902;42.130;24.732;2024-01-06T13:40:38;20.13;;;13.57;;
5754;SDS011;2902;42.130;24.732;2024-01-06T13:43:05;16.20;;;13.50;;
5754;SDS011;2902;42.130;24.732;2024-01-06T13:45:35;17.53;;;14.03;;
5754;SDS011;2902;42.130;24.732;2024-01-06T13:48:02;15.13;;;12.07;;
5754;SDS011;2902;42.130;24.732;2024-01-06T13:50:29;14.47;;;11.77;;
5754;SDS011;2902;42.130;24.732;2024-01-06T13:52:56;20.13;;;13.60;;
5754;SDS011;2902;42.130;24.732;2024-01-06T13:55:22;16.77;;;12.97;;
5754;SDS011;2902;42.130;24.732;2024-01-06T13:57:50;18.90;;;13.73;;
5754;SDS011;2902;42.130;24.732;2024-01-06T14:00:17;15.67;;;13.00;;
5754;SDS011;2902;42.130;24.732;2024-01-06T14:02:46;16.73;;;12.83;;
5754;SDS011;2902;42.130;24.732;2024-01-06T14:05:13;14.30;;;12.23;;
5754;SDS011;2902;42.130;24.732;2024-01-06T14:07:41;19.83;;;14.03;;
5754;SDS011;2902;42.130;24.732;2024-01-06T14:10:10;17.43;;;13.33;;
5754;SDS011;2902;42.130;24.732;2024-01-06T14:12:37;17.73;;;10.87;;
5754;SDS011;2902;42.130;24.732;2024-01-06T14:15:06;19.63;;;12.60;;
5754;SDS011;2902;42.130;24.732;2024-01-06T14:17:33;15.83;;;10.33;;
5754;SDS011;2902;42.130;24.732;2024-01-06T14:20:01;16.37;;;10.60;;
5754;SDS011;2902;42.130;24.732;2024-01-06T14:22:29;12.53;;;9.20;;
5754;SDS011;2902;42.130;24.732;2024-01-06T14:24:56;11.83;;;9.43;;
5754;SDS011;2902;42.130;24.732;2024-01-06T14:27:23;12.90;;;9.50;;
5754;SDS011;2902;42.130;24.732;2024-01-06T14:29:51;24.00;;;15.40;;
5754;SDS011;2902;42.130;24.732;2024-01-06T14:32:20;12.53;;;10.10;;
5754;SDS011;2902;42.130;24.732;2024-01-06T14:34:48;103.07;;;47.13;;
5754;SDS011;2902;42.130;24.732;2024-01-06T14:37:17;31.07;;;16.53;;
5754;SDS011;2902;42.130;24.732;2024-01-06T14:39:44;18.17;;;11.47;;